createdAt,value
2023-02-12T00:00:04.525Z,13.07
2023-02-12T00:02:41.976Z,14.17
2023-02-12T00:05:08.947Z,13.97
2023-02-12T00:07:35.734Z,15.00
2023-02-12T00:10:02.572Z,15.17
2023-02-12T00:12:29.461Z,13.90
2023-02-12T00:14:56.310Z,15.07
2023-02-12T00:17:23.133Z,14.87
2023-02-12T00:19:49.895Z,14.13
2023-02-12T00:22:16.864Z,13.67
2023-02-12T00:24:43.766Z,13.60
2023-02-12T00:27:10.592Z,14.00
2023-02-12T00:29:37.867Z,15.13
2023-02-12T00:32:05.725Z,14.97
2023-02-12T00:34:32.640Z,13.87
2023-02-12T00:36:59.778Z,13.97
2023-02-12T00:39:26.872Z,14.10
2023-02-12T00:41:53.759Z,13.63
2023-02-12T00:44:21.164Z,14.57
2023-02-12T00:46:47.993Z,14.40
2023-02-12T00:49:16.730Z,15.47
2023-02-12T00:51:43.564Z,15.27
2023-02-12T00:54:10.640Z,14.63
2023-02-12T00:56:37.617Z,14.53
2023-02-12T00:59:04.415Z,16.47
2023-02-12T01:01:31.406Z,14.70
2023-02-12T01:03:58.272Z,14.30
2023-02-12T01:06:26.666Z,13.37
2023-02-12T01:08:53.666Z,15.40
2023-02-12T01:11:20.691Z,14.23
2023-02-12T01:13:48.621Z,14.63
2023-02-12T01:16:17.985Z,14.93
2023-02-12T01:18:45.134Z,14.63
2023-02-12T01:21:16.111Z,15.70
2023-02-12T01:23:44.409Z,14.50
2023-02-12T01:26:12.332Z,15.63
2023-02-12T01:28:40.962Z,16.23
2023-02-12T01:31:16.822Z,16.07
2023-02-12T01:33:44.019Z,17.97
2023-02-12T01:36:11.314Z,16.50
2023-02-12T01:38:38.097Z,17.30
2023-02-12T01:41:06.526Z,16.93
2023-02-12T01:43:34.168Z,14.97
2023-02-12T01:46:01.192Z,15.53
2023-02-12T01:48:29.833Z,15.63
2023-02-12T01:50:57.787Z,13.93
2023-02-12T01:53:25.811Z,15.83
2023-02-12T01:55:57.380Z,14.67
2023-02-12T01:58:25.614Z,14.63
2023-02-12T02:00:52.731Z,14.73
2023-02-12T02:03:19.637Z,14.70
2023-02-12T02:05:58.701Z,14.93
2023-02-12T02:08:26.426Z,15.13
2023-02-12T02:10:53.214Z,14.73
2023-02-12T02:13:39.338Z,15.57
2023-02-12T02:16:15.330Z,14.73
2023-02-12T02:18:56.097Z,15.60
2023-02-12T02:21:41.398Z,15.20
2023-02-12T02:24:28.531Z,13.80
2023-02-12T02:27:05.876Z,16.27
2023-02-12T02:29:38.787Z,16.07
2023-02-12T02:32:11.744Z,15.70
2023-02-12T02:34:47.919Z,16.60
2023-02-12T02:37:17.958Z,17.93
2023-02-12T02:40:03.309Z,17.87
2023-02-12T02:42:30.198Z,15.87
2023-02-12T02:45:00.694Z,17.13
2023-02-12T02:47:54.120Z,16.30
2023-02-12T02:50:23.188Z,16.07
2023-02-12T02:52:52.774Z,17.77
2023-02-12T02:55:20.579Z,18.27
2023-02-12T02:57:47.317Z,17.10
2023-02-12T03:00:14.464Z,17.10
2023-02-12T03:02:43.233Z,17.37
2023-02-12T03:05:13.366Z,18.00
2023-02-12T03:07:52.696Z,15.03
2023-02-12T03:10:31.844Z,15.20
2023-02-12T03:13:05.733Z,15.77
2023-02-12T03:15:44.763Z,16.60
2023-02-12T03:18:14.596Z,16.03
2023-02-12T03:20:50.682Z,15.50
2023-02-12T03:23:19.708Z,15.30
2023-02-12T03:25:49.372Z,14.40
2023-02-12T03:28:21.016Z,15.97
2023-02-12T03:30:50.699Z,15.17
2023-02-12T03:33:21.147Z,15.13
2023-02-12T03:36:08.219Z,15.27
2023-02-12T03:38:41.712Z,15.30
2023-02-12T03:41:14.367Z,14.87
2023-02-12T03:43:53.434Z,14.53
2023-02-12T03:46:20.236Z,13.30
2023-02-12T03:49:13.495Z,14.63
2023-02-12T03:51:41.693Z,14.00
2023-02-12T03:54:09.739Z,14.40
2023-02-12T03:56:39.007Z,15.70
2023-02-12T03:59:06.143Z,14.07
2023-02-12T04:01:34.407Z,13.83
2023-02-12T04:04:04.201Z,13.60
2023-02-12T04:06:31.068Z,13.80
2023-02-12T04:08:59.224Z,13.00
2023-02-12T04:11:31.182Z,13.50
2023-02-12T04:14:07.095Z,12.33
2023-02-12T04:16:51.369Z,12.80
2023-02-12T04:19:26.013Z,13.07
2023-02-12T04:22:13.455Z,12.93
2023-02-12T04:24:58.966Z,12.43
2023-02-12T04:27:46.925Z,12.93
2023-02-12T04:30:32.537Z,12.37
2023-02-12T04:33:04.232Z,12.10
2023-02-12T04:35:36.889Z,12.47
2023-02-12T04:38:11.456Z,13.03
2023-02-12T04:40:41.619Z,12.77
2023-02-12T04:43:08.865Z,12.93
2023-02-12T04:45:36.625Z,12.50
2023-02-12T04:48:03.648Z,12.30
2023-02-12T04:50:41.736Z,12.73
2023-02-12T04:53:08.989Z,13.23
2023-02-12T04:55:36.190Z,12.63
2023-02-12T04:58:03.166Z,11.97
2023-02-12T05:00:30.105Z,12.27
2023-02-12T05:02:56.979Z,12.90
2023-02-12T05:05:24.008Z,12.50
2023-02-12T05:07:50.888Z,12.60
2023-02-12T05:10:17.748Z,12.10
2023-02-12T05:12:44.592Z,12.90
2023-02-12T05:15:11.407Z,11.90
2023-02-12T05:17:38.510Z,12.83
2023-02-12T05:20:06.238Z,13.47
2023-02-12T05:22:33.127Z,13.13
2023-02-12T05:25:00.118Z,12.10
2023-02-12T05:27:26.900Z,12.83
2023-02-12T05:29:53.786Z,13.57
2023-02-12T05:32:20.716Z,12.87
2023-02-12T05:34:47.569Z,12.53
2023-02-12T05:37:14.492Z,14.17
2023-02-12T05:39:41.389Z,12.63
2023-02-12T05:42:08.258Z,13.50
2023-02-12T05:44:35.138Z,13.23
2023-02-12T05:47:01.985Z,11.63
2023-02-12T05:49:28.792Z,10.23
2023-02-12T05:51:55.638Z,10.43
2023-02-12T05:54:22.398Z,9.27
2023-02-12T05:56:49.378Z,9.07
2023-02-12T05:59:18.381Z,7.73
2023-02-12T06:01:45.993Z,8.80
2023-02-12T06:04:18.256Z,8.20
2023-02-12T06:06:45.361Z,8.67
2023-02-12T06:09:12.761Z,8.07
2023-02-12T06:11:40.011Z,8.97
2023-02-12T06:14:07.921Z,8.07
2023-02-12T06:16:35.375Z,8.23
2023-02-12T06:19:04.679Z,7.20
2023-02-12T06:21:32.202Z,6.63
2023-02-12T06:23:59.075Z,7.63
2023-02-12T06:26:26.522Z,6.97
2023-02-12T06:28:53.427Z,7.00
2023-02-12T06:31:24.765Z,7.30
2023-02-12T06:33:52.104Z,8.03
2023-02-12T06:36:19.035Z,8.63
2023-02-12T06:38:46.272Z,8.80
2023-02-12T06:41:13.290Z,9.70
2023-02-12T06:43:40.236Z,7.77
2023-02-12T06:46:07.299Z,7.77
2023-02-12T06:48:34.208Z,7.70
2023-02-12T06:51:08.171Z,7.77
2023-02-12T06:53:35.740Z,6.73
2023-02-12T06:56:03.369Z,7.37
2023-02-12T06:58:30.503Z,7.30
2023-02-12T07:00:57.417Z,7.97
2023-02-12T07:03:24.313Z,7.03
2023-02-12T07:05:51.127Z,7.77
2023-02-12T07:08:17.962Z,6.60
2023-02-12T07:10:48.703Z,6.10
2023-02-12T07:13:15.622Z,6.67
2023-02-12T07:15:42.414Z,6.60
2023-02-12T07:18:09.287Z,6.13
2023-02-12T07:20:36.055Z,5.50
2023-02-12T07:23:02.917Z,8.07
2023-02-12T07:25:29.826Z,5.37
2023-02-12T07:27:56.592Z,5.83
2023-02-12T07:30:23.926Z,5.40
2023-02-12T07:32:50.674Z,5.20
2023-02-12T07:35:17.573Z,4.73
2023-02-12T07:37:44.393Z,4.33
2023-02-12T07:40:11.352Z,4.47
2023-02-12T07:42:38.146Z,4.90
2023-02-12T07:45:07.661Z,4.07
2023-02-12T07:47:35.959Z,4.47
2023-02-12T07:50:03.298Z,4.10
2023-02-12T07:52:30.199Z,4.43
2023-02-12T07:54:56.963Z,5.47
2023-02-12T07:57:24.000Z,5.20
2023-02-12T07:59:50.755Z,4.83
2023-02-12T08:02:17.620Z,4.33
2023-02-12T08:04:44.589Z,3.80
2023-02-12T08:07:11.393Z,3.70
2023-02-12T08:09:38.330Z,3.40
2023-02-12T08:12:05.212Z,2.93
2023-02-12T08:14:32.273Z,3.07
2023-02-12T08:16:59.094Z,3.00
2023-02-12T08:19:26.904Z,4.00
2023-02-12T08:21:56.713Z,4.30
2023-02-12T08:24:24.125Z,4.30
2023-02-12T08:26:51.357Z,4.20
2023-02-12T08:29:19.544Z,4.13
2023-02-12T08:31:48.159Z,3.80
2023-02-12T08:34:19.185Z,3.80
2023-02-12T08:36:46.568Z,3.67
2023-02-12T08:39:14.147Z,4.27
2023-02-12T08:41:42.517Z,4.20
2023-02-12T08:44:09.770Z,4.60
2023-02-12T08:46:37.864Z,4.53
2023-02-12T08:49:05.997Z,3.97
2023-02-12T08:51:34.730Z,4.83
2023-02-12T08:54:02.877Z,4.43
2023-02-12T08:56:30.993Z,4.87
2023-02-12T08:58:58.322Z,4.63
2023-02-12T09:01:26.051Z,5.00
2023-02-12T09:03:53.496Z,5.10
2023-02-12T09:06:21.345Z,4.70
2023-02-12T09:08:48.665Z,5.17
2023-02-12T09:11:16.789Z,4.87
2023-02-12T09:13:44.782Z,3.87
2023-02-12T09:16:11.820Z,4.90
2023-02-12T09:18:38.975Z,4.70
2023-02-12T09:21:09.738Z,4.93
2023-02-12T09:23:37.359Z,4.80
2023-02-12T09:26:05.764Z,4.93
2023-02-12T09:28:33.416Z,4.20
2023-02-12T09:31:04.798Z,4.93
2023-02-12T09:33:31.855Z,4.70
2023-02-12T09:36:05.668Z,4.70
2023-02-12T09:38:32.798Z,3.40
2023-02-12T09:41:18.482Z,4.93
2023-02-12T09:43:53.058Z,4.53
2023-02-12T09:46:34.341Z,4.63
2023-02-12T09:49:09.202Z,4.10
2023-02-12T09:51:36.997Z,4.77
2023-02-12T09:54:11.576Z,4.60
2023-02-12T09:56:39.790Z,3.67
2023-02-12T09:59:07.881Z,3.60
2023-02-12T10:01:35.186Z,4.43
2023-02-12T10:04:05.550Z,4.60
2023-02-12T10:06:52.784Z,5.10
2023-02-12T10:09:25.658Z,4.90
2023-02-12T10:11:53.396Z,5.57
2023-02-12T10:14:34.551Z,5.13
2023-02-12T10:17:12.419Z,5.90
2023-02-12T10:20:01.349Z,4.90
2023-02-12T10:22:31.376Z,4.83
2023-02-12T10:25:03.388Z,4.40
2023-02-12T10:27:33.166Z,4.63
2023-02-12T10:30:01.039Z,4.43
2023-02-12T10:32:30.844Z,5.03
2023-02-12T10:34:58.116Z,5.40
2023-02-12T10:37:40.324Z,4.80
2023-02-12T10:40:16.179Z,5.30
2023-02-12T10:42:44.323Z,3.93
2023-02-12T10:45:30.469Z,3.77
2023-02-12T10:48:15.811Z,4.10
2023-02-12T10:50:48.849Z,3.67
2023-02-12T10:53:18.819Z,3.83
2023-02-12T10:55:45.701Z,3.73
2023-02-12T10:58:23.322Z,4.00
2023-02-12T11:00:57.329Z,3.97
2023-02-12T11:03:28.595Z,3.93
2023-02-12T11:05:55.777Z,3.87
2023-02-12T11:08:36.895Z,2.87
2023-02-12T11:11:08.693Z,2.97
2023-02-12T11:13:35.860Z,3.03
2023-02-12T11:16:03.549Z,3.83
2023-02-12T11:18:34.749Z,8.50
2023-02-12T11:21:11.678Z,4.83
2023-02-12T11:23:41.662Z,3.83
2023-02-12T11:26:17.776Z,4.00
2023-02-12T11:29:01.903Z,5.43
2023-02-12T11:31:30.172Z,4.50
2023-02-12T11:34:14.269Z,4.97
2023-02-12T11:36:51.966Z,4.93
2023-02-12T11:39:21.712Z,4.93
2023-02-12T11:41:59.608Z,5.63
2023-02-12T11:44:32.530Z,5.13
2023-02-12T11:47:02.314Z,4.20
2023-02-12T11:49:30.956Z,5.53
2023-02-12T11:51:58.224Z,5.93
2023-02-12T11:54:27.115Z,6.53
2023-02-12T11:56:55.654Z,6.28
2023-02-12T11:59:41.074Z,5.93
2023-02-12T12:02:17.512Z,6.20
2023-02-12T12:04:46.676Z,6.50
2023-02-12T12:07:25.690Z,6.67
2023-02-12T12:10:16.043Z,6.80
2023-02-12T12:12:49.542Z,7.20
2023-02-12T12:15:38.283Z,7.83
2023-02-12T12:18:42.513Z,7.70
2023-02-12T12:21:12.619Z,7.97
2023-02-12T12:24:05.888Z,8.67
2023-02-12T12:26:34.809Z,10.20
2023-02-12T12:29:06.813Z,8.50
2023-02-12T12:31:36.236Z,9.23
2023-02-12T12:34:03.107Z,10.30
2023-02-12T12:36:45.865Z,9.50
2023-02-12T12:39:33.033Z,7.80
2023-02-12T12:42:02.676Z,8.30
2023-02-12T12:44:32.268Z,9.60
2023-02-12T12:47:02.361Z,11.50
2023-02-12T12:49:32.388Z,8.50
2023-02-12T12:52:02.384Z,8.53
2023-02-12T12:54:38.471Z,9.63
2023-02-12T12:57:09.216Z,8.73
2023-02-12T12:59:38.902Z,11.07
2023-02-12T13:02:05.794Z,9.40
2023-02-12T13:04:50.551Z,11.53
2023-02-12T13:07:28.757Z,8.50
2023-02-12T13:10:24.923Z,9.10
2023-02-12T13:12:52.253Z,9.60
2023-02-12T13:15:22.195Z,9.80
2023-02-12T13:17:58.473Z,10.90
2023-02-12T13:20:31.438Z,10.17
2023-02-12T13:23:14.047Z,8.67
2023-02-12T13:25:47.583Z,7.90
2023-02-12T13:28:19.099Z,8.90
2023-02-12T13:30:47.644Z,7.57
2023-02-12T13:33:22.039Z,9.10
2023-02-12T13:35:51.354Z,9.47
2023-02-12T13:38:23.345Z,8.10
2023-02-12T13:40:51.602Z,7.87
2023-02-12T13:43:34.220Z,6.90
2023-02-12T13:46:03.936Z,7.70
2023-02-12T13:48:42.667Z,8.83
2023-02-12T13:51:12.835Z,8.37
2023-02-12T13:53:54.705Z,8.13
2023-02-12T13:56:40.039Z,8.83
2023-02-12T13:59:26.821Z,6.87
2023-02-12T14:01:53.749Z,7.87
2023-02-12T14:04:39.323Z,7.97
2023-02-12T14:07:11.175Z,8.00
2023-02-12T14:09:47.268Z,7.53
2023-02-12T14:12:18.183Z,7.23
2023-02-12T14:14:47.275Z,9.03
2023-02-12T14:17:29.334Z,7.30
2023-02-12T14:20:14.969Z,7.70
2023-02-12T14:22:44.565Z,6.60
2023-02-12T14:25:14.378Z,6.47
2023-02-12T14:27:46.081Z,6.67
2023-02-12T14:30:13.111Z,6.87
2023-02-12T14:32:55.980Z,6.43
2023-02-12T14:35:41.637Z,6.87
2023-02-12T14:38:08.615Z,7.93
2023-02-12T14:40:35.381Z,7.93
2023-02-12T14:43:03.452Z,7.63
2023-02-12T14:45:35.116Z,13.00
2023-02-12T14:48:03.152Z,12.47
2023-02-12T14:50:31.709Z,9.43
2023-02-12T14:53:14.029Z,12.93
2023-02-12T14:55:43.801Z,9.47
2023-02-12T14:58:17.463Z,9.43
2023-02-12T15:00:46.898Z,11.80
2023-02-12T15:03:13.801Z,14.53
2023-02-12T15:05:43.425Z,13.40
2023-02-12T15:08:24.949Z,11.87
2023-02-12T15:11:08.395Z,11.57
2023-02-12T15:13:48.369Z,9.97
2023-02-12T15:16:41.281Z,9.77
2023-02-12T15:19:16.914Z,9.03
2023-02-12T15:21:46.282Z,8.83
2023-02-12T15:24:14.333Z,8.63
2023-02-12T15:26:42.886Z,8.97
2023-02-12T15:29:35.967Z,10.03
2023-02-12T15:32:06.671Z,9.33
2023-02-12T15:34:35.669Z,10.20
2023-02-12T15:37:03.892Z,10.47
2023-02-12T15:39:48.975Z,9.47
2023-02-12T15:42:24.808Z,9.43
2023-02-12T15:44:51.767Z,10.27
2023-02-12T15:47:24.833Z,15.67
2023-02-12T15:49:54.714Z,19.43
2023-02-12T15:52:24.974Z,16.83
2023-02-12T15:54:52.080Z,15.03
2023-02-12T15:57:21.566Z,17.80
2023-02-12T15:59:52.461Z,16.10
2023-02-12T16:02:27.682Z,30.00
2023-02-12T16:04:58.307Z,20.30
2023-02-12T16:07:26.063Z,16.80
2023-02-12T16:09:54.302Z,17.53
2023-02-12T16:12:23.142Z,15.30
2023-02-12T16:14:51.806Z,12.50
2023-02-12T16:17:29.828Z,11.60
2023-02-12T16:20:01.199Z,12.23
2023-02-12T16:22:37.698Z,12.80
2023-02-12T16:25:05.225Z,13.77
2023-02-12T16:27:33.252Z,11.57
2023-02-12T16:30:01.476Z,12.57
2023-02-12T16:32:34.546Z,11.00
2023-02-12T16:35:24.375Z,13.13
2023-02-12T16:37:52.730Z,10.40
2023-02-12T16:40:22.005Z,8.70
2023-02-12T16:42:49.213Z,10.23
2023-02-12T16:45:25.243Z,10.93
2023-02-12T16:47:53.787Z,14.93
2023-02-12T16:50:21.473Z,14.07
2023-02-12T16:52:48.327Z,8.50
2023-02-12T16:55:16.666Z,7.80
2023-02-12T16:57:44.508Z,8.37
2023-02-12T17:00:16.290Z,8.43
2023-02-12T17:02:43.535Z,7.97
2023-02-12T17:05:11.368Z,7.10
2023-02-12T17:07:38.173Z,6.33
2023-02-12T17:10:05.242Z,6.60
2023-02-12T17:12:32.006Z,7.33
2023-02-12T17:14:58.951Z,6.33
2023-02-12T17:17:25.835Z,7.53
2023-02-12T17:19:53.429Z,6.83
2023-02-12T17:22:22.065Z,6.07
2023-02-12T17:24:51.709Z,6.40
2023-02-12T17:27:18.900Z,6.40
2023-02-12T17:29:45.831Z,5.83
2023-02-12T17:32:12.775Z,8.87
2023-02-12T17:34:48.067Z,8.20
2023-02-12T17:37:16.681Z,7.33
2023-02-12T17:39:43.635Z,7.23
2023-02-12T17:42:10.501Z,7.60
2023-02-12T17:44:37.371Z,7.40
2023-02-12T17:47:04.264Z,7.30
2023-02-12T17:49:31.510Z,7.70
2023-02-12T17:51:58.361Z,6.13
2023-02-12T17:54:25.117Z,6.87
2023-02-12T17:56:52.058Z,6.70
2023-02-12T17:59:18.818Z,6.90
2023-02-12T18:01:45.907Z,6.53
2023-02-12T18:04:12.932Z,6.77
2023-02-12T18:06:39.842Z,7.30
2023-02-12T18:09:06.822Z,8.10
2023-02-12T18:11:33.626Z,8.63
2023-02-12T18:14:00.942Z,8.63
2023-02-12T18:16:29.358Z,7.97
2023-02-12T18:18:57.361Z,8.70
2023-02-12T18:21:24.250Z,8.83
2023-02-12T18:23:52.871Z,7.80
2023-02-12T18:26:19.678Z,10.23
2023-02-12T18:28:46.578Z,10.37
2023-02-12T18:31:13.554Z,10.40
2023-02-12T18:33:40.746Z,11.33
2023-02-12T18:36:09.396Z,10.43
2023-02-12T18:38:37.360Z,8.37
2023-02-12T18:41:08.076Z,8.97
2023-02-12T18:43:36.239Z,12.40
2023-02-12T18:46:13.903Z,12.50
2023-02-12T18:48:41.371Z,12.87
2023-02-12T18:51:08.836Z,13.27
2023-02-12T18:53:35.798Z,12.77
2023-02-12T18:56:06.035Z,13.67
2023-02-12T18:58:33.310Z,12.37
2023-02-12T19:01:00.490Z,14.73
2023-02-12T19:03:27.899Z,17.70
2023-02-12T19:06:02.143Z,20.60
2023-02-12T19:08:29.057Z,28.33
2023-02-12T19:10:56.062Z,27.17
2023-02-12T19:13:23.453Z,28.47
2023-02-12T19:15:50.475Z,27.10
2023-02-12T19:18:18.152Z,35.70
2023-02-12T19:20:45.171Z,33.73
2023-02-12T19:23:12.220Z,30.83
2023-02-12T19:25:43.007Z,22.50
2023-02-12T19:28:10.277Z,22.90
2023-02-12T19:30:37.538Z,23.17
2023-02-12T19:33:04.575Z,24.07
2023-02-12T19:35:31.472Z,23.73
2023-02-12T19:37:58.296Z,23.60
2023-02-12T19:40:25.572Z,23.10
2023-02-12T19:42:52.353Z,22.23
2023-02-12T19:45:19.236Z,25.13
2023-02-12T19:47:46.111Z,20.07
2023-02-12T19:50:12.986Z,19.53
2023-02-12T19:52:39.760Z,13.37
2023-02-12T19:55:06.716Z,10.27
2023-02-12T19:57:33.687Z,11.03
2023-02-12T20:00:00.563Z,10.57
2023-02-12T20:02:27.461Z,10.43
2023-02-12T20:04:54.309Z,17.07
2023-02-12T20:07:21.179Z,13.83
2023-02-12T20:09:50.447Z,9.17
2023-02-12T20:12:17.292Z,11.27
2023-02-12T20:14:44.606Z,15.30
2023-02-12T20:17:11.529Z,16.57
2023-02-12T20:19:38.284Z,14.23
2023-02-12T20:22:05.150Z,11.57
2023-02-12T20:24:32.999Z,11.13
2023-02-12T20:27:00.920Z,10.37
2023-02-12T20:29:28.226Z,22.87
2023-02-12T20:31:55.096Z,18.33
2023-02-12T20:34:22.499Z,15.80
2023-02-12T20:36:49.343Z,14.53
2023-02-12T20:39:17.612Z,19.03
2023-02-12T20:41:44.483Z,31.40
2023-02-12T20:44:14.042Z,27.07
2023-02-12T20:46:42.663Z,31.63
2023-02-12T20:49:12.105Z,30.77
2023-02-12T20:51:38.943Z,28.47
2023-02-12T20:54:06.068Z,27.13
2023-02-12T20:56:34.249Z,26.77
2023-02-12T20:59:01.255Z,27.57
2023-02-12T21:01:31.752Z,26.47
2023-02-12T21:04:01.648Z,29.30
2023-02-12T21:06:29.145Z,31.30
2023-02-12T21:08:56.321Z,30.17
2023-02-12T21:11:24.198Z,29.77
2023-02-12T21:13:58.856Z,31.07
2023-02-12T21:16:33.775Z,30.43
2023-02-12T21:19:01.004Z,32.27
2023-02-12T21:21:32.988Z,33.03
2023-02-12T21:24:01.735Z,39.97
2023-02-12T21:26:29.441Z,37.77
2023-02-12T21:28:57.699Z,42.33
2023-02-12T21:31:26.321Z,37.47
2023-02-12T21:33:54.582Z,40.87
2023-02-12T21:36:23.022Z,42.70
2023-02-12T21:38:50.750Z,36.17
2023-02-12T21:41:19.187Z,38.90
2023-02-12T21:43:47.485Z,35.17
2023-02-12T21:46:16.148Z,35.47
2023-02-12T21:48:43.378Z,33.63
2023-02-12T21:51:17.997Z,34.53
2023-02-12T21:53:45.926Z,33.23
2023-02-12T21:56:13.275Z,35.37
2023-02-12T21:58:40.959Z,35.40
2023-02-12T22:01:21.902Z,34.47
2023-02-12T22:03:49.619Z,30.70
2023-02-12T22:06:19.255Z,31.90
2023-02-12T22:08:46.674Z,32.20
2023-02-12T22:11:13.719Z,31.53
2023-02-12T22:13:40.953Z,33.53
2023-02-12T22:16:09.992Z,35.93
2023-02-12T22:18:37.165Z,33.50
2023-02-12T22:21:05.375Z,36.77
2023-02-12T22:23:32.560Z,33.07
2023-02-12T22:26:09.943Z,31.93
2023-02-12T22:28:43.863Z,30.13
2023-02-12T22:31:12.066Z,30.30
2023-02-12T22:33:39.472Z,30.20
2023-02-12T22:36:08.065Z,32.50
2023-02-12T22:38:35.610Z,32.40
2023-02-12T22:41:03.161Z,31.77
2023-02-12T22:43:31.403Z,34.13
2023-02-12T22:45:58.272Z,34.40
2023-02-12T22:48:25.336Z,35.00
2023-02-12T22:50:52.232Z,32.30
2023-02-12T22:53:19.099Z,32.20
2023-02-12T22:55:45.997Z,34.67
2023-02-12T22:58:12.851Z,35.87
2023-02-12T23:00:43.248Z,33.80
2023-02-12T23:03:10.565Z,35.83
2023-02-12T23:05:38.115Z,42.73
2023-02-12T23:08:05.597Z,45.17
2023-02-12T23:10:33.053Z,40.30
2023-02-12T23:12:59.818Z,37.40
2023-02-12T23:15:26.670Z,37.50
2023-02-12T23:17:53.644Z,35.83
2023-02-12T23:20:20.476Z,33.77
2023-02-12T23:22:47.390Z,34.73
2023-02-12T23:25:14.253Z,38.67
2023-02-12T23:27:41.079Z,38.13
2023-02-12T23:30:09.144Z,34.63
2023-02-12T23:32:35.994Z,39.63
2023-02-12T23:35:02.780Z,37.40
2023-02-12T23:37:29.691Z,39.20
2023-02-12T23:39:56.490Z,36.70
2023-02-12T23:42:23.323Z,34.10
2023-02-12T23:44:50.177Z,36.33
2023-02-12T23:47:17.402Z,36.40
2023-02-12T23:49:44.322Z,35.10
2023-02-12T23:52:11.164Z,40.17
2023-02-12T23:54:38.027Z,39.23
2023-02-12T23:57:04.933Z,38.17
2023-02-12T23:59:31.693Z,43.23
